East Hartford, CT (06108)

7:58 AM EST on December 19, 2014 (GMT -0500)
North End Of East Hartford | Change Station
CLOSE
Current Station
Personal Weather Station
Location: East Hartford, CT
Elevation: 61 ft
Nearby Weather Stations

Elev 61 ft 41.79 °N, 72.61 °W | Updated 3 seconds ago

Overcast
Overcast
33.7 °F
Feels Like 29 °F
N
4.6
Wind Variable Wind from NW
Gusts 4.6 mph

Today
High -- | Low -- °F
--% Chance of Precip.
Yesterday
High -- | Low -- °F
Precip. -- in
7:13 AM 4:21 PM
Waning Crescent, 8% visible
Pressure 29.97 in
Visibility 10.0 miles
Clouds Overcast 4000 ft
Windchill 29 °F
Dew Point 21 °F
Humidity 60%
Rainfall 0.00 in
Snow Depth Not available.
UV 0 out of 12
Pollen .10 out of 12
Air Quality Not available.
Flu Activity Not available.
METAR KHFD 191153Z 30008G17KT 10SM OVC040 01/M07 A2997 RMK AO2 SLP149 T00111067 10022 20011 53011

More Conditions Fewer Conditions

Pressure 29.97 in
Visibility 10.0 miles
Clouds Overcast 4000 ft
Windchill 29 °F
Dew Point 21 °F
Humidity 60%
Rainfall 0.00 in
Snow Depth Not available.
UV 0 out of 12
Pollen .10 out of 12
Air Quality Not available.
Flu Activity Not available.
METAR KHFD 191153Z 30008G17KT 10SM OVC040 01/M07 A2997 RMK AO2 SLP149 T00111067 10022 20011 53011

More Conditions Fewer Conditions

10-Day Weather Forecast

Almanac

Astronomy

Dec. 19, 2014 Rise Set
Actual Time
Civil Twilight
Nautical Twilight
Astronomical Twilight
Moon
Length of Visible Light
Length of Day
Tomorrow will be .
, % of the Moon is Illuminated

Today's Extremes

State Highs State Lows

Community

WunderPhotos

Upload Photos

1,778,975 photos uploaded!

WunderBlogs® & News

Nearby

Air Quality

  Air Quality AQ Index Pollutant
Not available.

Snow Depth

Station Depth Elevation

Earthquake Activity

City Distance Mag. Time & Date
Minimum magnitude displayed is 2.5.

Coastal Water Temperatures

Place Temperature

Nearby Weather Stations